sensor_id;sensor_type;location;lat;lon;timestamp;P1;durP1;ratioP1;P2;durP2;ratioP2
12826;SDS011;66927;48.812;9.118;2023-12-29T00:01:34;2.37;;;1.90;;
12826;SDS011;66927;48.812;9.118;2023-12-29T00:04:00;2.27;;;2.03;;
12826;SDS011;66927;48.812;9.118;2023-12-29T00:06:26;3.67;;;1.90;;
12826;SDS011;66927;48.812;9.118;2023-12-29T00:08:51;2.30;;;2.10;;
12826;SDS011;66927;48.812;9.118;2023-12-29T00:11:17;2.73;;;2.40;;
12826;SDS011;66927;48.812;9.118;2023-12-29T00:13:46;2.70;;;2.30;;
12826;SDS011;66927;48.812;9.118;2023-12-29T00:16:13;2.70;;;2.20;;
12826;SDS011;66927;48.812;9.118;2023-12-29T00:18:39;3.97;;;2.10;;
12826;SDS011;66927;48.812;9.118;2023-12-29T00:21:05;3.33;;;2.20;;
12826;SDS011;66927;48.812;9.118;2023-12-29T00:23:31;3.00;;;2.23;;
12826;SDS011;66927;48.812;9.118;2023-12-29T00:25:57;3.50;;;2.33;;
12826;SDS011;66927;48.812;9.118;2023-12-29T00:28:23;2.30;;;2.10;;
12826;SDS011;66927;48.812;9.118;2023-12-29T00:30:49;4.60;;;2.30;;
12826;SDS011;66927;48.812;9.118;2023-12-29T00:33:14;2.87;;;2.30;;
12826;SDS011;66927;48.812;9.118;2023-12-29T00:35:40;3.87;;;2.43;;
12826;SDS011;66927;48.812;9.118;2023-12-29T00:38:06;2.90;;;2.30;;
12826;SDS011;66927;48.812;9.118;2023-12-29T00:40:32;4.03;;;2.50;;
12826;SDS011;66927;48.812;9.118;2023-12-29T00:42:59;3.57;;;2.47;;
12826;SDS011;66927;48.812;9.118;2023-12-29T00:45:25;2.90;;;2.40;;
12826;SDS011;66927;48.812;9.118;2023-12-29T00:47:54;3.17;;;2.40;;
12826;SDS011;66927;48.812;9.118;2023-12-29T00:50:20;2.60;;;2.30;;
12826;SDS011;66927;48.812;9.118;2023-12-29T00:52:47;3.70;;;2.37;;
12826;SDS011;66927;48.812;9.118;2023-12-29T00:55:13;2.83;;;2.50;;
12826;SDS011;66927;48.812;9.118;2023-12-29T00:57:38;2.83;;;2.63;;
12826;SDS011;66927;48.812;9.118;2023-12-29T01:00:04;2.67;;;2.47;;
12826;SDS011;66927;48.812;9.118;2023-12-29T01:02:32;2.93;;;2.43;;
12826;SDS011;66927;48.812;9.118;2023-12-29T01:04:58;2.83;;;2.40;;
12826;SDS011;66927;48.812;9.118;2023-12-29T01:07:23;2.20;;;2.00;;
12826;SDS011;66927;48.812;9.118;2023-12-29T01:09:49;3.03;;;2.40;;
12826;SDS011;66927;48.812;9.118;2023-12-29T01:12:14;3.03;;;2.50;;
12826;SDS011;66927;48.812;9.118;2023-12-29T01:14:40;2.70;;;2.23;;
12826;SDS011;66927;48.812;9.118;2023-12-29T01:17:06;7.37;;;2.53;;
12826;SDS011;66927;48.812;9.118;2023-12-29T01:19:32;2.97;;;2.50;;
12826;SDS011;66927;48.812;9.118;2023-12-29T01:21:58;3.17;;;2.47;;
12826;SDS011;66927;48.812;9.118;2023-12-29T01:24:23;2.33;;;2.13;;
12826;SDS011;66927;48.812;9.118;2023-12-29T01:26:49;2.70;;;2.30;;
12826;SDS011;66927;48.812;9.118;2023-12-29T01:29:14;4.43;;;2.60;;
12826;SDS011;66927;48.812;9.118;2023-12-29T01:31:40;2.73;;;2.17;;
12826;SDS011;66927;48.812;9.118;2023-12-29T01:34:06;2.77;;;2.57;;
12826;SDS011;66927;48.812;9.118;2023-12-29T01:36:31;2.50;;;2.30;;
12826;SDS011;66927;48.812;9.118;2023-12-29T01:38:57;2.93;;;2.67;;
12826;SDS011;66927;48.812;9.118;2023-12-29T01:41:22;4.07;;;2.50;;
12826;SDS011;66927;48.812;9.118;2023-12-29T01:46:26;4.53;;;2.20;;
12826;SDS011;66927;48.812;9.118;2023-12-29T01:48:57;3.77;;;2.90;;
12826;SDS011;66927;48.812;9.118;2023-12-29T01:51:24;3.67;;;2.60;;
12826;SDS011;66927;48.812;9.118;2023-12-29T01:53:52;2.60;;;2.40;;
12826;SDS011;66927;48.812;9.118;2023-12-29T01:56:20;3.10;;;2.80;;
12826;SDS011;66927;48.812;9.118;2023-12-29T01:58:47;3.23;;;2.93;;
12826;SDS011;66927;48.812;9.118;2023-12-29T02:01:14;2.67;;;2.47;;
12826;SDS011;66927;48.812;9.118;2023-12-29T02:03:42;2.90;;;2.60;;
12826;SDS011;66927;48.812;9.118;2023-12-29T02:06:08;3.17;;;2.07;;
12826;SDS011;66927;48.812;9.118;2023-12-29T02:08:35;2.90;;;2.60;;
12826;SDS011;66927;48.812;9.118;2023-12-29T02:11:02;2.90;;;2.70;;
12826;SDS011;66927;48.812;9.118;2023-12-29T02:13:29;2.93;;;2.67;;
12826;SDS011;66927;48.812;9.118;2023-12-29T02:15:54;3.63;;;2.93;;
12826;SDS011;66927;48.812;9.118;2023-12-29T02:18:27;3.07;;;2.77;;
12826;SDS011;66927;48.812;9.118;2023-12-29T02:20:56;3.27;;;2.77;;
12826;SDS011;66927;48.812;9.118;2023-12-29T02:23:22;2.70;;;2.50;;
12826;SDS011;66927;48.812;9.118;2023-12-29T02:25:47;3.07;;;2.50;;
12826;SDS011;66927;48.812;9.118;2023-12-29T02:28:23;3.27;;;2.73;;
12826;SDS011;66927;48.812;9.118;2023-12-29T02:30:56;3.40;;;2.63;;
12826;SDS011;66927;48.812;9.118;2023-12-29T02:33:33;3.30;;;2.40;;
12826;SDS011;66927;48.812;9.118;2023-12-29T02:36:04;3.60;;;2.70;;
12826;SDS011;66927;48.812;9.118;2023-12-29T02:38:31;3.53;;;2.60;;
12826;SDS011;66927;48.812;9.118;2023-12-29T02:40:58;2.83;;;2.43;;
12826;SDS011;66927;48.812;9.118;2023-12-29T02:43:24;3.13;;;2.70;;
12826;SDS011;66927;48.812;9.118;2023-12-29T02:45:50;3.47;;;2.87;;
12826;SDS011;66927;48.812;9.118;2023-12-29T02:48:16;2.87;;;2.53;;
12826;SDS011;66927;48.812;9.118;2023-12-29T02:50:42;5.10;;;3.23;;
12826;SDS011;66927;48.812;9.118;2023-12-29T02:53:08;3.57;;;2.67;;
12826;SDS011;66927;48.812;9.118;2023-12-29T02:55:34;3.00;;;2.70;;
12826;SDS011;66927;48.812;9.118;2023-12-29T02:58:02;3.10;;;2.80;;
12826;SDS011;66927;48.812;9.118;2023-12-29T03:00:43;6.37;;;3.10;;
12826;SDS011;66927;48.812;9.118;2023-12-29T03:03:18;3.53;;;2.67;;
12826;SDS011;66927;48.812;9.118;2023-12-29T03:05:45;4.03;;;2.60;;
12826;SDS011;66927;48.812;9.118;2023-12-29T03:08:19;3.23;;;2.93;;
12826;SDS011;66927;48.812;9.118;2023-12-29T03:10:45;3.47;;;2.80;;
12826;SDS011;66927;48.812;9.118;2023-12-29T03:13:10;3.30;;;2.63;;
12826;SDS011;66927;48.812;9.118;2023-12-29T03:15:36;3.00;;;2.60;;
12826;SDS011;66927;48.812;9.118;2023-12-29T03:18:04;3.63;;;2.70;;
12826;SDS011;66927;48.812;9.118;2023-12-29T03:20:33;3.13;;;2.73;;
12826;SDS011;66927;48.812;9.118;2023-12-29T03:23:08;3.97;;;3.13;;
12826;SDS011;66927;48.812;9.118;2023-12-29T03:25:36;3.50;;;2.83;;
12826;SDS011;66927;48.812;9.118;2023-12-29T03:28:12;4.93;;;3.00;;
12826;SDS011;66927;48.812;9.118;2023-12-29T03:30:37;4.27;;;2.93;;
12826;SDS011;66927;48.812;9.118;2023-12-29T03:33:05;4.77;;;3.13;;
12826;SDS011;66927;48.812;9.118;2023-12-29T03:35:31;3.30;;;2.77;;
12826;SDS011;66927;48.812;9.118;2023-12-29T03:37:57;3.40;;;2.77;;
12826;SDS011;66927;48.812;9.118;2023-12-29T03:40:22;6.17;;;3.27;;
12826;SDS011;66927;48.812;9.118;2023-12-29T03:42:48;3.10;;;2.80;;
12826;SDS011;66927;48.812;9.118;2023-12-29T03:45:13;3.20;;;2.90;;
12826;SDS011;66927;48.812;9.118;2023-12-29T03:47:39;3.23;;;2.93;;
12826;SDS011;66927;48.812;9.118;2023-12-29T03:50:05;4.13;;;3.10;;
12826;SDS011;66927;48.812;9.118;2023-12-29T03:52:31;2.90;;;2.70;;
12826;SDS011;66927;48.812;9.118;2023-12-29T03:54:56;3.67;;;2.63;;
12826;SDS011;66927;48.812;9.118;2023-12-29T03:57:22;2.60;;;2.40;;
12826;SDS011;66927;48.812;9.118;2023-12-29T03:59:47;2.70;;;2.50;;
12826;SDS011;66927;48.812;9.118;2023-12-29T04:02:13;3.93;;;2.80;;
12826;SDS011;66927;48.812;9.118;2023-12-29T04:04:39;2.87;;;2.60;;
12826;SDS011;66927;48.812;9.118;2023-12-29T04:07:04;2.93;;;2.70;;
12826;SDS011;66927;48.812;9.118;2023-12-29T04:09:30;2.50;;;2.30;;
12826;SDS011;66927;48.812;9.118;2023-12-29T04:11:56;5.17;;;2.73;;
12826;SDS011;66927;48.812;9.118;2023-12-29T04:14:22;2.80;;;2.50;;
12826;SDS011;66927;48.812;9.118;2023-12-29T04:16:47;2.90;;;2.50;;
12826;SDS011;66927;48.812;9.118;2023-12-29T04:19:13;2.70;;;2.27;;
12826;SDS011;66927;48.812;9.118;2023-12-29T04:21:39;2.73;;;2.53;;
12826;SDS011;66927;48.812;9.118;2023-12-29T04:24:04;3.90;;;2.77;;
12826;SDS011;66927;48.812;9.118;2023-12-29T04:26:34;2.60;;;2.40;;
12826;SDS011;66927;48.812;9.118;2023-12-29T04:29:03;5.20;;;2.63;;
12826;SDS011;66927;48.812;9.118;2023-12-29T04:31:29;2.40;;;2.20;;
12826;SDS011;66927;48.812;9.118;2023-12-29T04:33:54;2.63;;;2.43;;
12826;SDS011;66927;48.812;9.118;2023-12-29T04:36:20;2.60;;;2.40;;
12826;SDS011;66927;48.812;9.118;2023-12-29T04:38:45;4.27;;;2.60;;
12826;SDS011;66927;48.812;9.118;2023-12-29T04:41:11;3.13;;;2.53;;
12826;SDS011;66927;48.812;9.118;2023-12-29T04:43:38;4.07;;;3.10;;
12826;SDS011;66927;48.812;9.118;2023-12-29T04:46:03;3.10;;;2.80;;
12826;SDS011;66927;48.812;9.118;2023-12-29T04:48:29;2.40;;;2.20;;
12826;SDS011;66927;48.812;9.118;2023-12-29T04:50:54;2.77;;;2.30;;
12826;SDS011;66927;48.812;9.118;2023-12-29T04:53:20;2.93;;;2.53;;
12826;SDS011;66927;48.812;9.118;2023-12-29T04:55:46;3.17;;;2.67;;
12826;SDS011;66927;48.812;9.118;2023-12-29T04:58:11;2.60;;;2.40;;
12826;SDS011;66927;48.812;9.118;2023-12-29T05:00:37;2.60;;;2.40;;
12826;SDS011;66927;48.812;9.118;2023-12-29T05:03:03;2.70;;;2.50;;
12826;SDS011;66927;48.812;9.118;2023-12-29T05:05:28;2.63;;;2.43;;
12826;SDS011;66927;48.812;9.118;2023-12-29T05:07:54;2.43;;;2.23;;
12826;SDS011;66927;48.812;9.118;2023-12-29T05:10:19;2.73;;;2.30;;
12826;SDS011;66927;48.812;9.118;2023-12-29T05:12:48;3.03;;;2.50;;
12826;SDS011;66927;48.812;9.118;2023-12-29T05:15:13;2.50;;;2.30;;
12826;SDS011;66927;48.812;9.118;2023-12-29T05:17:39;2.50;;;2.30;;
12826;SDS011;66927;48.812;9.118;2023-12-29T05:20:06;2.43;;;2.20;;
12826;SDS011;66927;48.812;9.118;2023-12-29T05:22:32;2.50;;;2.30;;
12826;SDS011;66927;48.812;9.118;2023-12-29T05:24:58;4.97;;;2.83;;
12826;SDS011;66927;48.812;9.118;2023-12-29T05:27:25;5.73;;;2.40;;
12826;SDS011;66927;48.812;9.118;2023-12-29T05:29:52;2.60;;;2.40;;
12826;SDS011;66927;48.812;9.118;2023-12-29T05:32:17;3.17;;;2.10;;
12826;SDS011;66927;48.812;9.118;2023-12-29T05:34:43;2.50;;;2.30;;
12826;SDS011;66927;48.812;9.118;2023-12-29T05:37:09;2.80;;;2.60;;
12826;SDS011;66927;48.812;9.118;2023-12-29T05:39:34;2.47;;;2.27;;
12826;SDS011;66927;48.812;9.118;2023-12-29T05:42:00;2.70;;;2.30;;
12826;SDS011;66927;48.812;9.118;2023-12-29T05:44:26;2.83;;;2.43;;
12826;SDS011;66927;48.812;9.118;2023-12-29T05:46:51;2.73;;;2.20;;
12826;SDS011;66927;48.812;9.118;2023-12-29T05:49:22;2.77;;;2.43;;
12826;SDS011;66927;48.812;9.118;2023-12-29T05:51:50;3.30;;;2.30;;
12826;SDS011;66927;48.812;9.118;2023-12-29T05:54:18;2.30;;;2.10;;
12826;SDS011;66927;48.812;9.118;2023-12-29T05:56:44;3.00;;;2.30;;
12826;SDS011;66927;48.812;9.118;2023-12-29T05:59:10;2.70;;;2.50;;
12826;SDS011;66927;48.812;9.118;2023-12-29T06:01:35;3.90;;;2.30;;
12826;SDS011;66927;48.812;9.118;2023-12-29T06:04:01;3.73;;;2.30;;
12826;SDS011;66927;48.812;9.118;2023-12-29T06:06:30;2.87;;;2.60;;
12826;SDS011;66927;48.812;9.118;2023-12-29T06:08:56;3.00;;;2.70;;
12826;SDS011;66927;48.812;9.118;2023-12-29T06:11:21;4.40;;;2.77;;
12826;SDS011;66927;48.812;9.118;2023-12-29T06:13:47;2.50;;;2.30;;
12826;SDS011;66927;48.812;9.118;2023-12-29T06:16:19;2.53;;;2.33;;
12826;SDS011;66927;48.812;9.118;2023-12-29T06:18:47;3.33;;;2.33;;
12826;SDS011;66927;48.812;9.118;2023-12-29T06:21:13;2.57;;;2.00;;
12826;SDS011;66927;48.812;9.118;2023-12-29T06:23:38;4.03;;;2.50;;
12826;SDS011;66927;48.812;9.118;2023-12-29T06:26:04;2.60;;;2.40;;
12826;SDS011;66927;48.812;9.118;2023-12-29T06:28:30;3.47;;;2.40;;
12826;SDS011;66927;48.812;9.118;2023-12-29T06:30:55;2.40;;;1.93;;
12826;SDS011;66927;48.812;9.118;2023-12-29T06:33:21;2.90;;;2.20;;
12826;SDS011;66927;48.812;9.118;2023-12-29T06:35:47;3.37;;;2.07;;
12826;SDS011;66927;48.812;9.118;2023-12-29T06:38:13;2.90;;;1.97;;
12826;SDS011;66927;48.812;9.118;2023-12-29T06:40:39;2.40;;;2.20;;
12826;SDS011;66927;48.812;9.118;2023-12-29T06:43:05;3.90;;;2.20;;
12826;SDS011;66927;48.812;9.118;2023-12-29T06:45:31;2.23;;;2.03;;
12826;SDS011;66927;48.812;9.118;2023-12-29T06:47:56;2.30;;;2.10;;
12826;SDS011;66927;48.812;9.118;2023-12-29T06:50:22;5.40;;;2.50;;
12826;SDS011;66927;48.812;9.118;2023-12-29T06:52:48;2.83;;;2.30;;
12826;SDS011;66927;48.812;9.118;2023-12-29T06:55:13;2.77;;;1.97;;
12826;SDS011;66927;48.812;9.118;2023-12-29T06:57:39;2.43;;;2.23;;
12826;SDS011;66927;48.812;9.118;2023-12-29T07:00:05;2.50;;;2.30;;
12826;SDS011;66927;48.812;9.118;2023-12-29T07:02:31;2.40;;;2.20;;
12826;SDS011;66927;48.812;9.118;2023-12-29T07:04:57;3.23;;;2.53;;
12826;SDS011;66927;48.812;9.118;2023-12-29T07:07:23;2.80;;;2.00;;
12826;SDS011;66927;48.812;9.118;2023-12-29T07:09:49;2.47;;;2.00;;
12826;SDS011;66927;48.812;9.118;2023-12-29T07:12:15;2.20;;;2.00;;
12826;SDS011;66927;48.812;9.118;2023-12-29T07:14:41;2.90;;;2.40;;
12826;SDS011;66927;48.812;9.118;2023-12-29T07:17:07;3.20;;;1.97;;
12826;SDS011;66927;48.812;9.118;2023-12-29T07:19:33;3.33;;;2.23;;
12826;SDS011;66927;48.812;9.118;2023-12-29T07:22:02;2.20;;;2.00;;
12826;SDS011;66927;48.812;9.118;2023-12-29T07:24:30;2.20;;;2.00;;
12826;SDS011;66927;48.812;9.118;2023-12-29T07:26:55;2.37;;;1.70;;
12826;SDS011;66927;48.812;9.118;2023-12-29T07:29:22;3.23;;;1.90;;
12826;SDS011;66927;48.812;9.118;2023-12-29T07:31:47;2.53;;;2.00;;
12826;SDS011;66927;48.812;9.118;2023-12-29T07:34:14;2.13;;;1.90;;
12826;SDS011;66927;48.812;9.118;2023-12-29T07:36:40;2.00;;;1.80;;
12826;SDS011;66927;48.812;9.118;2023-12-29T07:39:05;1.90;;;1.80;;
12826;SDS011;66927;48.812;9.118;2023-12-29T07:41:32;2.40;;;1.73;;
12826;SDS011;66927;48.812;9.118;2023-12-29T07:43:58;3.33;;;1.90;;
12826;SDS011;66927;48.812;9.118;2023-12-29T07:46:24;1.90;;;1.80;;
12826;SDS011;66927;48.812;9.118;2023-12-29T07:48:51;2.00;;;1.80;;
12826;SDS011;66927;48.812;9.118;2023-12-29T07:51:17;1.80;;;1.67;;
12826;SDS011;66927;48.812;9.118;2023-12-29T07:53:43;1.87;;;1.70;;
12826;SDS011;66927;48.812;9.118;2023-12-29T07:56:10;2.23;;;1.83;;
12826;SDS011;66927;48.812;9.118;2023-12-29T07:58:35;2.47;;;1.93;;
12826;SDS011;66927;48.812;9.118;2023-12-29T08:01:01;3.67;;;2.00;;
12826;SDS011;66927;48.812;9.118;2023-12-29T08:03:27;1.93;;;1.73;;
12826;SDS011;66927;48.812;9.118;2023-12-29T08:05:53;1.87;;;1.60;;
12826;SDS011;66927;48.812;9.118;2023-12-29T08:08:18;3.67;;;1.97;;
12826;SDS011;66927;48.812;9.118;2023-12-29T08:10:44;2.23;;;1.80;;
12826;SDS011;66927;48.812;9.118;2023-12-29T08:13:10;2.90;;;2.00;;
12826;SDS011;66927;48.812;9.118;2023-12-29T08:15:35;2.00;;;1.70;;
12826;SDS011;66927;48.812;9.118;2023-12-29T08:18:03;4.90;;;1.97;;
12826;SDS011;66927;48.812;9.118;2023-12-29T08:20:29;2.33;;;2.13;;
12826;SDS011;66927;48.812;9.118;2023-12-29T08:22:55;3.37;;;2.07;;
12826;SDS011;66927;48.812;9.118;2023-12-29T08:25:22;2.40;;;2.10;;
12826;SDS011;66927;48.812;9.118;2023-12-29T08:27:47;1.93;;;1.83;;
12826;SDS011;66927;48.812;9.118;2023-12-29T08:30:13;2.30;;;1.90;;
12826;SDS011;66927;48.812;9.118;2023-12-29T08:32:39;4.33;;;2.10;;
12826;SDS011;66927;48.812;9.118;2023-12-29T08:35:05;2.30;;;2.10;;
12826;SDS011;66927;48.812;9.118;2023-12-29T08:37:31;2.40;;;1.90;;
12826;SDS011;66927;48.812;9.118;2023-12-29T08:39:58;2.37;;;1.87;;
12826;SDS011;66927;48.812;9.118;2023-12-29T08:42:25;4.93;;;2.00;;
12826;SDS011;66927;48.812;9.118;2023-12-29T08:44:53;4.43;;;2.33;;
12826;SDS011;66927;48.812;9.118;2023-12-29T08:47:18;1.93;;;1.83;;
12826;SDS011;66927;48.812;9.118;2023-12-29T08:49:44;2.53;;;1.80;;
12826;SDS011;66927;48.812;9.118;2023-12-29T08:52:10;2.47;;;1.90;;
12826;SDS011;66927;48.812;9.118;2023-12-29T08:54:36;3.23;;;2.10;;
12826;SDS011;66927;48.812;9.118;2023-12-29T08:57:02;3.07;;;2.17;;
12826;SDS011;66927;48.812;9.118;2023-12-29T08:59:28;2.30;;;2.10;;
12826;SDS011;66927;48.812;9.118;2023-12-29T09:01:54;2.23;;;1.97;;
12826;SDS011;66927;48.812;9.118;2023-12-29T09:04:20;2.90;;;1.90;;
12826;SDS011;66927;48.812;9.118;2023-12-29T09:06:45;2.93;;;1.90;;
12826;SDS011;66927;48.812;9.118;2023-12-29T09:09:11;4.03;;;2.20;;
12826;SDS011;66927;48.812;9.118;2023-12-29T09:11:38;2.10;;;1.90;;
12826;SDS011;66927;48.812;9.118;2023-12-29T09:14:04;2.10;;;1.90;;
12826;SDS011;66927;48.812;9.118;2023-12-29T09:16:30;2.27;;;1.97;;
12826;SDS011;66927;48.812;9.118;2023-12-29T09:18:56;2.17;;;1.93;;
12826;SDS011;66927;48.812;9.118;2023-12-29T09:21:22;2.77;;;1.77;;
12826;SDS011;66927;48.812;9.118;2023-12-29T09:23:47;2.57;;;2.00;;
12826;SDS011;66927;48.812;9.118;2023-12-29T09:26:13;2.03;;;1.83;;
12826;SDS011;66927;48.812;9.118;2023-12-29T09:28:41;2.00;;;1.70;;
12826;SDS011;66927;48.812;9.118;2023-12-29T09:31:11;1.80;;;1.60;;
12826;SDS011;66927;48.812;9.118;2023-12-29T09:33:37;1.77;;;1.50;;
12826;SDS011;66927;48.812;9.118;2023-12-29T09:36:03;1.70;;;1.60;;
12826;SDS011;66927;48.812;9.118;2023-12-29T09:38:29;3.57;;;2.07;;
12826;SDS011;66927;48.812;9.118;2023-12-29T09:40:55;2.00;;;1.80;;
12826;SDS011;66927;48.812;9.118;2023-12-29T09:43:25;2.43;;;1.77;;
12826;SDS011;66927;48.812;9.118;2023-12-29T09:45:51;6.37;;;1.73;;
12826;SDS011;66927;48.812;9.118;2023-12-29T09:48:17;3.00;;;1.50;;
12826;SDS011;66927;48.812;9.118;2023-12-29T09:50:45;1.80;;;1.50;;
12826;SDS011;66927;48.812;9.118;2023-12-29T09:53:11;2.37;;;1.53;;
12826;SDS011;66927;48.812;9.118;2023-12-29T09:55:39;3.10;;;1.57;;
12826;SDS011;66927;48.812;9.118;2023-12-29T09:58:06;2.37;;;1.57;;
12826;SDS011;66927;48.812;9.118;2023-12-29T10:00:33;2.10;;;1.60;;
12826;SDS011;66927;48.812;9.118;2023-12-29T10:03:00;2.77;;;1.80;;
12826;SDS011;66927;48.812;9.118;2023-12-29T10:05:27;1.87;;;1.77;;
12826;SDS011;66927;48.812;9.118;2023-12-29T10:07:52;1.77;;;1.67;;
12826;SDS011;66927;48.812;9.118;2023-12-29T10:10:18;1.90;;;1.80;;
12826;SDS011;66927;48.812;9.118;2023-12-29T10:12:47;2.13;;;1.77;;
12826;SDS011;66927;48.812;9.118;2023-12-29T10:15:20;1.50;;;1.40;;
12826;SDS011;66927;48.812;9.118;2023-12-29T10:18:07;2.40;;;2.07;;
12826;SDS011;66927;48.812;9.118;2023-12-29T10:23:50;1.63;;;1.53;;
12826;SDS011;66927;48.812;9.118;2023-12-29T10:26:34;1.93;;;1.47;;
12826;SDS011;66927;48.812;9.118;2023-12-29T10:29:01;1.63;;;1.53;;
12826;SDS011;66927;48.812;9.118;2023-12-29T10:31:27;1.63;;;1.50;;
12826;SDS011;66927;48.812;9.118;2023-12-29T10:33:52;2.30;;;1.63;;
12826;SDS011;66927;48.812;9.118;2023-12-29T10:36:48;1.83;;;1.63;;
12826;SDS011;66927;48.812;9.118;2023-12-29T10:39:14;2.07;;;1.47;;
12826;SDS011;66927;48.812;9.118;2023-12-29T10:41:40;1.53;;;1.33;;
12826;SDS011;66927;48.812;9.118;2023-12-29T10:44:07;1.50;;;1.40;;
12826;SDS011;66927;48.812;9.118;2023-12-29T10:46:33;1.40;;;1.30;;
12826;SDS011;66927;48.812;9.118;2023-12-29T10:49:20;3.23;;;1.30;;
12826;SDS011;66927;48.812;9.118;2023-12-29T10:51:47;2.13;;;1.30;;
12826;SDS011;66927;48.812;9.118;2023-12-29T10:54:19;1.40;;;1.30;;
12826;SDS011;66927;48.812;9.118;2023-12-29T10:57:01;1.30;;;1.20;;
12826;SDS011;66927;48.812;9.118;2023-12-29T10:59:27;1.27;;;1.17;;
12826;SDS011;66927;48.812;9.118;2023-12-29T11:01:53;1.70;;;1.30;;
12826;SDS011;66927;48.812;9.118;2023-12-29T11:04:21;1.40;;;1.30;;
12826;SDS011;66927;48.812;9.118;2023-12-29T11:06:48;1.37;;;1.27;;
12826;SDS011;66927;48.812;9.118;2023-12-29T11:09:32;1.30;;;1.20;;
12826;SDS011;66927;48.812;9.118;2023-12-29T11:12:00;1.10;;;1.00;;
12826;SDS011;66927;48.812;9.118;2023-12-29T11:14:26;1.50;;;1.30;;
12826;SDS011;66927;48.812;9.118;2023-12-29T11:16:56;1.30;;;1.20;;
12826;SDS011;66927;48.812;9.118;2023-12-29T11:19:25;1.73;;;1.20;;
12826;SDS011;66927;48.812;9.118;2023-12-29T11:21:52;1.20;;;1.10;;
12826;SDS011;66927;48.812;9.118;2023-12-29T11:24:19;1.87;;;1.20;;
12826;SDS011;66927;48.812;9.118;2023-12-29T11:26:46;2.00;;;1.50;;
12826;SDS011;66927;48.812;9.118;2023-12-29T11:29:12;1.33;;;1.23;;
12826;SDS011;66927;48.812;9.118;2023-12-29T11:31:40;1.10;;;1.00;;
12826;SDS011;66927;48.812;9.118;2023-12-29T11:34:11;1.20;;;1.10;;
12826;SDS011;66927;48.812;9.118;2023-12-29T11:36:43;1.40;;;1.30;;
12826;SDS011;66927;48.812;9.118;2023-12-29T11:44:31;1.30;;;1.20;;
12826;SDS011;66927;48.812;9.118;2023-12-29T11:46:58;2.40;;;1.20;;
12826;SDS011;66927;48.812;9.118;2023-12-29T11:49:25;1.53;;;1.20;;
12826;SDS011;66927;48.812;9.118;2023-12-29T11:51:51;1.77;;;1.10;;
12826;SDS011;66927;48.812;9.118;2023-12-29T11:56:54;1.10;;;1.00;;
12826;SDS011;66927;48.812;9.118;2023-12-29T12:01:49;1.20;;;1.10;;
12826;SDS011;66927;48.812;9.118;2023-12-29T12:07:06;1.47;;;1.10;;
12826;SDS011;66927;48.812;9.118;2023-12-29T12:09:33;1.10;;;1.00;;
12826;SDS011;66927;48.812;9.118;2023-12-29T12:12:00;1.47;;;1.03;;
12826;SDS011;66927;48.812;9.118;2023-12-29T12:17:27;1.27;;;1.00;;
12826;SDS011;66927;48.812;9.118;2023-12-29T12:22:36;1.20;;;1.10;;
12826;SDS011;66927;48.812;9.118;2023-12-29T12:25:02;1.07;;;1.00;;
12826;SDS011;66927;48.812;9.118;2023-12-29T12:27:31;1.10;;;1.03;;
12826;SDS011;66927;48.812;9.118;2023-12-29T12:29:58;1.23;;;1.13;;
12826;SDS011;66927;48.812;9.118;2023-12-29T12:32:25;1.23;;;1.13;;
12826;SDS011;66927;48.812;9.118;2023-12-29T12:34:52;1.20;;;1.10;;
12826;SDS011;66927;48.812;9.118;2023-12-29T12:37:23;1.20;;;1.10;;
12826;SDS011;66927;48.812;9.118;2023-12-29T12:39:50;1.13;;;1.00;;
12826;SDS011;66927;48.812;9.118;2023-12-29T12:42:16;1.37;;;1.27;;
12826;SDS011;66927;48.812;9.118;2023-12-29T12:44:47;1.87;;;1.37;;
12826;SDS011;66927;48.812;9.118;2023-12-29T12:47:19;1.30;;;1.20;;
12826;SDS011;66927;48.812;9.118;2023-12-29T12:50:04;1.57;;;1.40;;
12826;SDS011;66927;48.812;9.118;2023-12-29T12:52:33;1.50;;;1.40;;
12826;SDS011;66927;48.812;9.118;2023-12-29T12:55:00;0.97;;;0.97;;
12826;SDS011;66927;48.812;9.118;2023-12-29T12:57:27;1.13;;;1.03;;
12826;SDS011;66927;48.812;9.118;2023-12-29T12:59:53;1.30;;;1.20;;
12826;SDS011;66927;48.812;9.118;2023-12-29T13:02:19;1.73;;;1.10;;
12826;SDS011;66927;48.812;9.118;2023-12-29T13:04:46;1.50;;;1.40;;
12826;SDS011;66927;48.812;9.118;2023-12-29T13:07:16;1.50;;;1.40;;
12826;SDS011;66927;48.812;9.118;2023-12-29T13:09:44;1.47;;;1.37;;
12826;SDS011;66927;48.812;9.118;2023-12-29T13:12:13;1.40;;;1.30;;
12826;SDS011;66927;48.812;9.118;2023-12-29T13:14:41;1.50;;;1.40;;
12826;SDS011;66927;48.812;9.118;2023-12-29T13:17:11;2.00;;;1.27;;
12826;SDS011;66927;48.812;9.118;2023-12-29T13:19:38;1.40;;;1.30;;
12826;SDS011;66927;48.812;9.118;2023-12-29T13:22:07;1.97;;;1.40;;
12826;SDS011;66927;48.812;9.118;2023-12-29T13:24:34;1.40;;;1.30;;
12826;SDS011;66927;48.812;9.118;2023-12-29T13:27:07;1.50;;;1.40;;
12826;SDS011;66927;48.812;9.118;2023-12-29T13:29:34;1.70;;;1.40;;
12826;SDS011;66927;48.812;9.118;2023-12-29T13:32:22;1.67;;;1.20;;
12826;SDS011;66927;48.812;9.118;2023-12-29T13:42:39;2.13;;;1.40;;
12826;SDS011;66927;48.812;9.118;2023-12-29T13:45:09;1.30;;;1.20;;
12826;SDS011;66927;48.812;9.118;2023-12-29T13:47:37;2.23;;;1.30;;
12826;SDS011;66927;48.812;9.118;2023-12-29T13:50:04;1.50;;;1.40;;
12826;SDS011;66927;48.812;9.118;2023-12-29T13:52:30;2.70;;;1.40;;
12826;SDS011;66927;48.812;9.118;2023-12-29T13:54:56;1.80;;;1.30;;
12826;SDS011;66927;48.812;9.118;2023-12-29T13:57:32;1.10;;;1.00;;
12826;SDS011;66927;48.812;9.118;2023-12-29T14:02:47;0.97;;;0.97;;
12826;SDS011;66927;48.812;9.118;2023-12-29T14:05:32;1.40;;;1.30;;
12826;SDS011;66927;48.812;9.118;2023-12-29T14:10:32;2.03;;;1.30;;
12826;SDS011;66927;48.812;9.118;2023-12-29T14:15:36;1.10;;;1.03;;
12826;SDS011;66927;48.812;9.118;2023-12-29T14:20:49;2.07;;;1.20;;
12826;SDS011;66927;48.812;9.118;2023-12-29T14:23:16;1.23;;;1.13;;
12826;SDS011;66927;48.812;9.118;2023-12-29T14:25:43;1.40;;;1.30;;
12826;SDS011;66927;48.812;9.118;2023-12-29T14:28:19;1.30;;;1.17;;
12826;SDS011;66927;48.812;9.118;2023-12-29T14:30:48;1.10;;;1.00;;
12826;SDS011;66927;48.812;9.118;2023-12-29T14:33:14;1.97;;;1.57;;
12826;SDS011;66927;48.812;9.118;2023-12-29T14:35:39;1.30;;;1.20;;
12826;SDS011;66927;48.812;9.118;2023-12-29T14:38:05;4.17;;;2.27;;
12826;SDS011;66927;48.812;9.118;2023-12-29T14:40:32;4.67;;;1.60;;
12826;SDS011;66927;48.812;9.118;2023-12-29T14:43:02;1.47;;;1.30;;
12826;SDS011;66927;48.812;9.118;2023-12-29T14:45:28;1.43;;;1.33;;
12826;SDS011;66927;48.812;9.118;2023-12-29T14:47:57;1.93;;;1.57;;
12826;SDS011;66927;48.812;9.118;2023-12-29T14:50:23;1.93;;;1.37;;
12826;SDS011;66927;48.812;9.118;2023-12-29T14:52:49;2.17;;;1.50;;
12826;SDS011;66927;48.812;9.118;2023-12-29T14:55:15;1.60;;;1.37;;
12826;SDS011;66927;48.812;9.118;2023-12-29T14:57:41;1.30;;;1.20;;
12826;SDS011;66927;48.812;9.118;2023-12-29T15:00:09;2.17;;;1.60;;
12826;SDS011;66927;48.812;9.118;2023-12-29T15:02:35;1.50;;;1.30;;
12826;SDS011;66927;48.812;9.118;2023-12-29T15:05:02;3.17;;;2.30;;
12826;SDS011;66927;48.812;9.118;2023-12-29T15:07:28;3.27;;;2.40;;
12826;SDS011;66927;48.812;9.118;2023-12-29T15:09:55;7.23;;;5.03;;
12826;SDS011;66927;48.812;9.118;2023-12-29T15:12:24;5.37;;;4.40;;
12826;SDS011;66927;48.812;9.118;2023-12-29T15:14:50;7.67;;;5.80;;
12826;SDS011;66927;48.812;9.118;2023-12-29T15:17:15;4.70;;;3.97;;
12826;SDS011;66927;48.812;9.118;2023-12-29T15:19:41;4.30;;;3.90;;
12826;SDS011;66927;48.812;9.118;2023-12-29T15:22:06;4.27;;;3.30;;
12826;SDS011;66927;48.812;9.118;2023-12-29T15:24:32;5.73;;;4.03;;
12826;SDS011;66927;48.812;9.118;2023-12-29T15:26:57;8.47;;;6.00;;
12826;SDS011;66927;48.812;9.118;2023-12-29T15:29:23;7.10;;;5.43;;
12826;SDS011;66927;48.812;9.118;2023-12-29T15:31:49;4.80;;;3.20;;